• Join FlightAware (Why Join?)
  • Login
  • US Flag 
10:54PM EDT


 

Airport Tracker/Info


-or-


 

Live Flight TrackerFlight Track Log ✈ EMD21 ✈ 24-Apr-2014 ✈ KOKC - KMLC

Flight Track Log - Related Links

Times and Time Zones

All times are in EDT time to prevent confusion due to time zone crossing. See the EMD21 flight status page for this flight to view local times or setup timezone preferences in your user account.

Time Position Orientation Groundspeed Altitude Reporting Facility
EDT Latitude Longitude Course Direction KTS MPH feet Rate Location/Type
03:17PM 35.4000 -97.6075 27° Northeast 119 137 1,900  Level Fort Worth Center
03:18PM 35.4175 -97.5967 27° Northeast 114 131 2,700 1,140 Climbing Fort Worth Center
03:19PM 35.4228 -97.5544 81° East 160 184 3,700 1,200 Climbing Fort Worth Center
03:20PM 35.4169 -97.4978 97° East 165 190 5,100 1,380 Climbing Fort Worth Center
03:21PM 35.3958 -97.4447 116° Southeast 170 196 6,600 1,500 Climbing Fort Worth Center
03:22PM 35.3767 -97.3758 109° East 180 207 8,200 1,140 Climbing Fort Worth Center
03:23PM 35.3600 -97.3128 108° East 194 223 9,000 360 Climbing Fort Worth Center
03:24PM 35.3325 -97.2281 112° Southeast 262 302 9,000  Level Fort Worth Center
03:25PM 35.3047 -97.1378 111° Southeast 270 311 9,000  Level Fort Worth Center
03:26PM 35.2831 -97.0606 109° East 262 302 9,000  Level Fort Worth Center
03:27PM 35.2553 -96.9711 111° Southeast 262 302 9,000  Level Fort Worth Center
03:28PM 35.2308 -96.8881 110° East 261 300 9,000  Level Fort Worth Center
03:29PM 35.2053 -96.8053 111° Southeast 259 298 9,000  Level Fort Worth Center
03:30PM 35.1775 -96.7164 111° Southeast 259 298 9,000  Level Fort Worth Center
03:31PM 35.1511 -96.6328 111° Southeast 260 299 9,000 -240 Level Fort Worth Center
03:32PM 35.1244 -96.5419 110° East 261 300 8,600 -540 Descending Fort Worth Center
03:33PM 35.0944 -96.4544 113° Southeast 276 318 7,900 -720 Descending Fort Worth Center
03:34PM 35.0667 -96.3672 111° Southeast 276 318 7,200 -780 Descending Fort Worth Center
03:35PM 35.0403 -96.2842 111° Southeast 268 308 6,300 -960 Descending Fort Worth Center
03:36PM 35.0147 -96.2014 111° Southeast 266 306 5,300 -1,020 Descending Fort Worth Center